createdAt,value
2018-10-21T00:00:21.991Z,80.47
2018-10-21T00:02:49.451Z,80.37
2018-10-21T00:05:18.236Z,80.84
2018-10-21T00:07:46.153Z,81.10
2018-10-21T00:10:13.482Z,81.82
2018-10-21T00:12:40.815Z,81.31
2018-10-21T00:15:09.052Z,81.16
2018-10-21T00:17:36.852Z,80.50
2018-10-21T00:20:04.377Z,81.40
2018-10-21T00:22:31.942Z,81.36
2018-10-21T00:24:59.222Z,81.54
2018-10-21T00:27:28.787Z,81.73
2018-10-21T00:29:56.263Z,81.33
2018-10-21T00:32:58.661Z,80.85
2018-10-21T00:35:26.264Z,81.19
2018-10-21T00:37:54.826Z,81.49
2018-10-21T00:40:22.213Z,80.51
2018-10-21T00:42:51.633Z,79.71
2018-10-21T00:45:19.450Z,79.77
2018-10-21T00:47:46.896Z,79.75
2018-10-21T00:50:14.276Z,80.13
2018-10-21T00:52:42.418Z,80.31
2018-10-21T00:55:10.614Z,79.81
2018-10-21T00:57:42.354Z,80.17
2018-10-21T01:00:11.567Z,80.36
2018-10-21T01:02:40.190Z,79.87
2018-10-21T01:05:08.966Z,80.97
2018-10-21T01:07:36.340Z,80.98
2018-10-21T01:10:04.336Z,81.16
2018-10-21T01:12:31.929Z,81.27
2018-10-21T01:14:59.403Z,82.07
2018-10-21T01:17:26.684Z,80.49
2018-10-21T01:19:54.091Z,79.23
2018-10-21T01:22:22.100Z,79.56
2018-10-21T01:24:49.760Z,81.09
2018-10-21T01:27:17.211Z,81.16
2018-10-21T01:29:46.343Z,81.03
2018-10-21T01:32:15.569Z,80.60
2018-10-21T01:34:43.028Z,80.67
2018-10-21T01:37:10.574Z,80.42
2018-10-21T01:40:54.094Z,81.24
2018-10-21T01:43:22.825Z,81.54
2018-10-21T01:45:51.410Z,81.39
2018-10-21T01:48:19.925Z,81.19
2018-10-21T01:50:47.405Z,82.48
2018-10-21T01:53:15.912Z,82.23
2018-10-21T01:55:45.056Z,82.72
2018-10-21T01:58:12.485Z,82.79
2018-10-21T02:00:40.656Z,81.77
2018-10-21T02:03:08.248Z,81.89
2018-10-21T02:05:35.987Z,82.39
2018-10-21T02:08:03.910Z,82.03
2018-10-21T02:17:30.281Z,82.53
2018-10-21T02:19:58.144Z,82.56
2018-10-21T02:22:25.616Z,82.26
2018-10-21T02:24:53.097Z,82.11
2018-10-21T02:27:21.761Z,81.67
2018-10-21T02:29:49.794Z,81.11
2018-10-21T02:32:17.210Z,80.80
2018-10-21T02:34:44.617Z,81.46
2018-10-21T02:37:12.022Z,82.34
2018-10-21T02:39:39.379Z,82.72
2018-10-21T02:42:06.885Z,83.16
2018-10-21T02:44:35.504Z,83.08
2018-10-21T02:47:05.111Z,83.62
2018-10-21T02:49:32.662Z,82.95
2018-10-21T02:52:07.688Z,82.18
2018-10-21T02:54:35.804Z,82.59
2018-10-21T02:57:04.869Z,82.41
2018-10-21T02:59:33.652Z,83.09
2018-10-21T03:02:01.367Z,82.46
2018-10-21T03:04:28.906Z,82.07
2018-10-21T03:06:56.369Z,82.25
2018-10-21T03:09:24.046Z,82.30
2018-10-21T03:11:52.152Z,82.36
2018-10-21T03:14:19.706Z,82.36
2018-10-21T03:16:47.094Z,82.35
2018-10-21T03:19:15.614Z,82.29
2018-10-21T03:21:44.693Z,81.93
2018-10-21T03:24:15.970Z,81.68
2018-10-21T03:26:44.198Z,81.60
2018-10-21T03:29:12.655Z,81.93
2018-10-21T03:31:40.691Z,83.21
2018-10-21T03:34:09.785Z,82.49
2018-10-21T03:36:36.997Z,82.16
2018-10-21T03:39:06.521Z,82.19
2018-10-21T03:41:36.333Z,82.25
2018-10-21T03:44:04.626Z,81.79
2018-10-21T03:46:32.891Z,81.84
2018-10-21T03:49:00.304Z,81.57
2018-10-21T03:51:27.696Z,82.53
2018-10-21T03:53:57.239Z,82.12
2018-10-21T03:56:24.891Z,82.52
2018-10-21T03:58:52.291Z,82.82
2018-10-21T04:01:19.734Z,82.78
2018-10-21T04:03:52.274Z,82.30
2018-10-21T04:06:19.714Z,81.95
2018-10-21T04:08:46.967Z,81.89
2018-10-21T04:11:16.608Z,81.64
2018-10-21T04:13:44.103Z,81.88
2018-10-21T04:16:11.670Z,82.42
2018-10-21T04:18:39.001Z,81.75
2018-10-21T04:21:06.424Z,81.95
2018-10-21T04:23:34.087Z,81.78
2018-10-21T04:26:01.642Z,81.91
2018-10-21T04:28:29.096Z,81.05
2018-10-21T04:30:57.266Z,81.15
2018-10-21T04:33:41.416Z,81.05
2018-10-21T04:36:11.538Z,81.06
2018-10-21T04:38:50.487Z,81.48
2018-10-21T04:41:18.541Z,82.17
2018-10-21T04:43:46.079Z,80.79
2018-10-21T04:46:13.356Z,79.49
2018-10-21T04:48:42.887Z,79.92
2018-10-21T04:51:11.059Z,80.30
2018-10-21T04:53:39.087Z,80.59
2018-10-21T04:56:08.833Z,80.01
2018-10-21T04:58:36.202Z,80.53
2018-10-21T05:01:08.555Z,80.98
2018-10-21T05:03:38.433Z,81.04
2018-10-21T05:06:07.764Z,80.57
2018-10-21T05:08:35.220Z,80.45
2018-10-21T05:11:02.756Z,81.05
2018-10-21T05:13:30.569Z,80.93
2018-10-21T05:15:58.068Z,81.09
2018-10-21T05:18:27.632Z,80.89
2018-10-21T05:20:54.937Z,82.01
2018-10-21T05:23:22.332Z,80.95
2018-10-21T05:25:49.644Z,81.90
2018-10-21T05:28:23.283Z,83.82
2018-10-21T05:30:51.662Z,83.39
2018-10-21T05:33:19.530Z,82.29
2018-10-21T05:35:47.072Z,82.40
2018-10-21T05:38:15.245Z,81.50
2018-10-21T05:40:44.968Z,82.10
2018-10-21T05:43:12.747Z,82.56
2018-10-21T05:45:40.236Z,81.92
2018-10-21T05:48:07.947Z,82.09
2018-10-21T05:50:35.420Z,82.97
2018-10-21T05:53:03.385Z,82.86
2018-10-21T05:55:32.462Z,82.55
2018-10-21T05:58:01.045Z,82.44
2018-10-21T06:00:28.387Z,82.45
2018-10-21T06:02:56.585Z,81.96
2018-10-21T06:05:45.608Z,83.08
2018-10-21T06:08:13.002Z,82.68
2018-10-21T06:10:41.039Z,81.58
2018-10-21T06:13:09.945Z,82.35
2018-10-21T06:15:37.543Z,83.02
2018-10-21T06:18:37.427Z,82.12
2018-10-21T06:21:05.677Z,81.66
2018-10-21T06:23:33.713Z,81.63
2018-10-21T06:26:05.314Z,82.43
2018-10-21T06:28:32.697Z,82.22
2018-10-21T06:30:59.992Z,82.80
2018-10-21T06:33:27.277Z,82.36
2018-10-21T06:35:54.612Z,82.32
2018-10-21T06:38:21.909Z,79.75
2018-10-21T06:40:49.206Z,78.24
2018-10-21T06:43:16.518Z,78.44
2018-10-21T06:45:43.866Z,77.31
2018-10-21T06:48:11.090Z,77.50
2018-10-21T06:50:38.374Z,76.83
2018-10-21T06:53:05.649Z,78.29
2018-10-21T06:55:32.990Z,78.64
2018-10-21T06:58:00.304Z,79.03
2018-10-21T07:00:27.572Z,76.04
2018-10-21T07:02:54.897Z,73.58
2018-10-21T07:05:33.548Z,71.20
2018-10-21T07:08:00.811Z,67.64
2018-10-21T07:10:28.119Z,64.23
2018-10-21T07:12:55.399Z,62.41
2018-10-21T07:15:22.738Z,60.77
2018-10-21T07:17:49.969Z,58.01
2018-10-21T07:20:17.220Z,58.56
2018-10-21T07:22:44.834Z,56.21
2018-10-21T07:25:12.149Z,54.12
2018-10-21T07:27:39.926Z,52.72
2018-10-21T07:31:31.727Z,53.62
2018-10-21T07:33:58.960Z,53.62
2018-10-21T07:36:26.228Z,54.24
2018-10-21T07:38:53.445Z,55.63
2018-10-21T07:41:20.780Z,57.36
2018-10-21T07:43:48.071Z,58.37
2018-10-21T07:46:15.455Z,60.63
2018-10-21T07:48:42.671Z,62.83
2018-10-21T07:51:10.363Z,62.88
2018-10-21T07:53:37.665Z,63.10
2018-10-21T07:56:05.069Z,62.06
2018-10-21T07:58:32.342Z,61.12
2018-10-21T08:00:59.702Z,60.12
2018-10-21T08:03:26.875Z,60.36
2018-10-21T08:06:19.126Z,57.42
2018-10-21T08:08:46.494Z,57.72
2018-10-21T08:11:13.667Z,54.59
2018-10-21T08:13:40.948Z,51.01
2018-10-21T08:16:08.253Z,49.60
2018-10-21T08:18:35.419Z,47.92
2018-10-21T08:21:02.787Z,46.61
2018-10-21T08:23:30.082Z,45.65
2018-10-21T08:25:57.371Z,45.03
2018-10-21T08:28:24.644Z,46.06
2018-10-21T08:30:51.890Z,45.35
2018-10-21T08:33:19.216Z,44.35
2018-10-21T08:35:46.506Z,44.34
2018-10-21T08:38:13.735Z,42.73
2018-10-21T08:40:41.006Z,43.52
2018-10-21T08:43:08.344Z,44.92
2018-10-21T08:45:35.611Z,44.68
2018-10-21T08:48:02.973Z,43.15
2018-10-21T08:50:30.259Z,44.59
2018-10-21T08:52:57.564Z,46.28
2018-10-21T08:55:24.860Z,47.64
2018-10-21T08:57:52.128Z,48.81
2018-10-21T09:00:19.755Z,49.71
2018-10-21T09:02:47.207Z,51.92
2018-10-21T09:05:17.750Z,53.28
2018-10-21T09:07:45.282Z,50.58
2018-10-21T09:10:13.924Z,53.15
2018-10-21T09:12:41.342Z,52.73
2018-10-21T09:15:11.561Z,51.74
2018-10-21T09:17:38.934Z,48.09
2018-10-21T09:20:08.045Z,48.93
2018-10-21T09:22:35.434Z,52.40
2018-10-21T09:25:02.796Z,54.96
2018-10-21T09:27:30.093Z,55.90
2018-10-21T09:29:57.507Z,54.94
2018-10-21T09:32:24.716Z,53.96
2018-10-21T09:34:51.978Z,53.08
2018-10-21T09:37:19.262Z,51.90
2018-10-21T09:39:46.522Z,51.65
2018-10-21T09:42:13.945Z,51.68
2018-10-21T09:44:41.189Z,49.68
2018-10-21T09:47:08.458Z,52.81
2018-10-21T09:49:35.752Z,51.04
2018-10-21T09:52:03.075Z,49.53
2018-10-21T09:54:30.342Z,47.44
2018-10-21T09:56:57.770Z,49.17
2018-10-21T09:59:25.113Z,50.99
2018-10-21T10:01:58.090Z,51.08
2018-10-21T10:04:25.397Z,51.33
2018-10-21T10:06:52.568Z,51.36
2018-10-21T10:09:19.942Z,49.78
2018-10-21T10:11:47.257Z,49.78
2018-10-21T10:14:14.527Z,47.35
2018-10-21T10:16:41.783Z,44.71
2018-10-21T10:19:09.085Z,43.81
2018-10-21T10:21:36.287Z,43.58
2018-10-21T10:24:03.699Z,45.81
2018-10-21T10:26:31.186Z,48.31
2018-10-21T10:28:58.625Z,48.31
2018-10-21T10:31:26.179Z,47.81
2018-10-21T10:33:53.519Z,45.65
2018-10-21T10:36:20.838Z,46.96
2018-10-21T10:38:47.970Z,49.76
2018-10-21T10:41:15.223Z,51.22
2018-10-21T10:43:42.516Z,49.08
2018-10-21T10:46:09.863Z,46.61
2018-10-21T10:48:37.156Z,47.15
2018-10-21T10:51:04.864Z,46.63
2018-10-21T10:53:32.138Z,46.81
2018-10-21T10:55:59.392Z,45.95
2018-10-21T10:58:26.662Z,46.54
2018-10-21T11:00:53.943Z,48.08
2018-10-21T11:03:21.262Z,46.16
2018-10-21T11:05:48.644Z,47.10
2018-10-21T11:08:15.859Z,47.60
2018-10-21T11:10:43.169Z,48.09
2018-10-21T11:13:10.445Z,46.90
2018-10-21T11:15:37.795Z,45.91
2018-10-21T11:18:05.162Z,45.30
2018-10-21T11:20:32.412Z,44.35
2018-10-21T11:22:59.743Z,44.03
2018-10-21T11:25:27.064Z,42.65
2018-10-21T11:27:54.368Z,42.82
2018-10-21T11:30:21.677Z,41.45
2018-10-21T11:32:49.059Z,40.73
2018-10-21T11:35:16.272Z,39.96
2018-10-21T11:37:43.679Z,40.72
2018-10-21T11:40:10.884Z,42.17
2018-10-21T11:42:38.116Z,40.63
2018-10-21T11:45:05.945Z,41.62
2018-10-21T11:47:33.264Z,40.26
2018-10-21T11:50:00.538Z,39.19
2018-10-21T11:52:27.869Z,41.80
2018-10-21T11:54:55.119Z,42.14
2018-10-21T11:57:22.656Z,41.75
2018-10-21T11:59:49.942Z,41.81
2018-10-21T12:02:17.280Z,41.74
2018-10-21T12:04:44.725Z,40.39
2018-10-21T12:07:12.072Z,41.70
2018-10-21T12:09:39.349Z,44.97
2018-10-21T12:12:06.717Z,46.64
2018-10-21T12:14:34.017Z,47.45
2018-10-21T12:17:01.318Z,46.21
2018-10-21T12:19:29.202Z,46.17
2018-10-21T12:21:56.563Z,43.76
2018-10-21T12:24:48.123Z,42.85
2018-10-21T12:27:16.026Z,42.43
2018-10-21T12:29:43.322Z,42.66
2018-10-21T12:32:10.573Z,41.99
2018-10-21T12:34:37.863Z,43.95
2018-10-21T12:37:05.279Z,42.16
2018-10-21T12:39:32.616Z,44.04
2018-10-21T12:41:59.807Z,43.13
2018-10-21T12:44:27.056Z,45.61
2018-10-21T12:46:54.404Z,46.13
2018-10-21T12:49:21.742Z,44.45
2018-10-21T12:51:48.957Z,44.46
2018-10-21T12:54:16.341Z,42.17
2018-10-21T12:56:43.597Z,42.18
2018-10-21T12:59:11.025Z,40.56
2018-10-21T13:01:38.346Z,40.50
2018-10-21T13:04:05.721Z,39.17
2018-10-21T13:06:32.970Z,38.83
2018-10-21T13:09:00.194Z,37.81
2018-10-21T13:11:27.509Z,39.39
2018-10-21T13:13:54.832Z,40.57
2018-10-21T13:16:22.149Z,39.29
2018-10-21T13:18:49.705Z,39.41
2018-10-21T13:21:16.948Z,38.87
2018-10-21T13:23:44.278Z,41.30
2018-10-21T13:26:11.518Z,41.92
2018-10-21T13:28:38.790Z,42.00
2018-10-21T13:31:06.040Z,39.99
2018-10-21T13:33:33.283Z,38.16
2018-10-21T13:36:02.978Z,37.56
2018-10-21T13:38:30.292Z,37.15
2018-10-21T13:40:57.562Z,37.54
2018-10-21T13:43:24.873Z,37.66
2018-10-21T13:45:52.179Z,40.26
2018-10-21T13:48:19.426Z,40.92
2018-10-21T13:50:46.645Z,39.67
2018-10-21T13:53:13.948Z,38.12
2018-10-21T13:55:41.155Z,39.98
2018-10-21T13:58:08.467Z,41.75
2018-10-21T14:00:35.851Z,42.44
2018-10-21T14:03:03.007Z,42.77
2018-10-21T14:05:30.330Z,42.06
2018-10-21T14:07:57.589Z,40.70
2018-10-21T14:10:24.799Z,38.71
2018-10-21T14:12:52.073Z,38.67
2018-10-21T14:15:19.408Z,38.27
2018-10-21T14:17:46.635Z,38.20
2018-10-21T14:20:13.911Z,37.23
2018-10-21T14:22:41.158Z,36.50
2018-10-21T14:25:08.509Z,36.25
2018-10-21T14:27:35.984Z,36.31
2018-10-21T14:30:03.595Z,36.06
2018-10-21T14:32:30.766Z,35.47
2018-10-21T14:34:58.027Z,35.10
2018-10-21T14:37:25.635Z,36.05
2018-10-21T14:39:52.871Z,34.85
2018-10-21T14:42:20.147Z,37.43
2018-10-21T14:44:47.355Z,38.58
2018-10-21T14:47:14.574Z,40.33
2018-10-21T14:49:41.838Z,40.44
2018-10-21T14:52:09.070Z,39.13
2018-10-21T14:54:36.372Z,37.72
2018-10-21T14:57:03.783Z,36.52
2018-10-21T14:59:31.234Z,36.25
2018-10-21T15:01:58.479Z,37.11
2018-10-21T15:04:25.771Z,37.22
2018-10-21T15:06:53.158Z,37.52
2018-10-21T15:09:20.450Z,36.68
2018-10-21T15:11:47.680Z,36.06
2018-10-21T15:14:14.961Z,35.87
2018-10-21T15:16:42.093Z,36.12
2018-10-21T15:19:09.268Z,36.74
2018-10-21T15:21:37.022Z,35.91
2018-10-21T15:24:04.487Z,34.89
2018-10-21T15:26:31.809Z,35.34
2018-10-21T15:28:59.142Z,35.05
2018-10-21T15:31:26.369Z,35.90
2018-10-21T15:33:53.680Z,37.70
2018-10-21T15:36:20.970Z,38.40
2018-10-21T15:38:48.263Z,38.76
2018-10-21T15:41:15.705Z,39.36
2018-10-21T15:43:42.949Z,38.83
2018-10-21T15:46:10.288Z,39.39
2018-10-21T15:48:37.558Z,39.98
2018-10-21T15:51:05.032Z,40.59
2018-10-21T15:53:32.315Z,40.09
2018-10-21T15:55:59.587Z,41.41
2018-10-21T15:58:26.962Z,40.88
2018-10-21T16:00:54.320Z,40.56
2018-10-21T16:03:21.658Z,39.80
2018-10-21T16:05:48.881Z,40.25
2018-10-21T16:08:16.225Z,39.62
2018-10-21T16:10:43.458Z,40.07
2018-10-21T16:13:11.648Z,39.46
2018-10-21T16:15:39.439Z,39.82
2018-10-21T16:18:07.464Z,40.23
2018-10-21T16:20:36.495Z,41.52
2018-10-21T16:23:04.894Z,42.11
2018-10-21T16:25:32.769Z,42.29
2018-10-21T16:28:00.214Z,42.88
2018-10-21T16:30:27.696Z,43.29
2018-10-21T16:32:55.096Z,43.38
2018-10-21T16:35:22.259Z,44.23
2018-10-21T16:37:49.860Z,44.25
2018-10-21T16:40:17.216Z,44.51
2018-10-21T16:42:44.522Z,45.51
2018-10-21T16:45:12.770Z,45.67
2018-10-21T16:47:40.219Z,45.33
2018-10-21T16:50:09.482Z,45.61
2018-10-21T16:52:36.915Z,46.20
2018-10-21T16:55:04.977Z,46.09
2018-10-21T16:57:32.375Z,47.11
2018-10-21T16:59:59.625Z,46.49
2018-10-21T17:02:26.911Z,47.05
2018-10-21T17:04:54.189Z,47.38
2018-10-21T17:07:21.491Z,47.15
2018-10-21T17:09:49.069Z,47.03
2018-10-21T17:12:16.115Z,47.20
2018-10-21T17:14:43.375Z,47.35
2018-10-21T17:17:11.473Z,46.95
2018-10-21T17:19:38.737Z,47.16
2018-10-21T17:22:06.083Z,48.14
2018-10-21T17:24:33.298Z,48.20
2018-10-21T17:27:00.533Z,48.49
2018-10-21T17:29:27.885Z,48.59
2018-10-21T17:31:55.173Z,48.63
2018-10-21T17:34:22.505Z,48.80
2018-10-21T17:36:49.997Z,48.95
2018-10-21T17:39:17.429Z,48.79
2018-10-21T17:41:44.833Z,48.88
2018-10-21T17:44:12.495Z,49.58
2018-10-21T17:46:39.801Z,49.50
2018-10-21T17:49:07.277Z,49.17
2018-10-21T17:51:34.520Z,49.61
2018-10-21T17:54:01.822Z,49.83
2018-10-21T17:56:29.167Z,49.57
2018-10-21T17:58:56.591Z,50.44
2018-10-21T18:01:24.075Z,49.92
2018-10-21T18:03:51.387Z,50.16
2018-10-21T18:06:18.750Z,50.68
2018-10-21T18:08:46.060Z,50.64
2018-10-21T18:11:13.343Z,50.64
2018-10-21T18:13:40.516Z,50.94
2018-10-21T18:16:07.818Z,51.80
2018-10-21T18:18:35.221Z,51.19
2018-10-21T18:21:02.608Z,51.72
2018-10-21T18:23:29.875Z,51.29
2018-10-21T18:25:57.179Z,52.09
2018-10-21T18:28:24.365Z,52.05
2018-10-21T18:30:51.630Z,52.12
2018-10-21T18:33:18.871Z,51.97
2018-10-21T18:35:46.159Z,52.57
2018-10-21T18:38:13.566Z,52.75
2018-10-21T18:40:49.525Z,53.58
2018-10-21T18:43:16.745Z,53.25
2018-10-21T18:45:44.061Z,53.40
2018-10-21T18:48:11.294Z,53.51
2018-10-21T18:50:38.523Z,52.99
2018-10-21T18:53:05.768Z,53.69
2018-10-21T18:55:33.007Z,53.49
2018-10-21T18:58:00.315Z,53.32
2018-10-21T19:00:27.656Z,53.32
2018-10-21T19:02:54.975Z,54.08
2018-10-21T19:05:22.314Z,54.50
2018-10-21T19:07:49.636Z,54.30
2018-10-21T19:10:16.936Z,54.87
2018-10-21T19:12:44.683Z,54.97
2018-10-21T19:15:12.711Z,55.16
2018-10-21T19:17:40.511Z,55.19
2018-10-21T19:20:10.101Z,55.23
2018-10-21T19:22:37.362Z,55.60
2018-10-21T19:25:06.213Z,55.66
2018-10-21T19:27:33.531Z,55.84
2018-10-21T19:30:00.820Z,55.02
2018-10-21T19:32:28.053Z,55.94
2018-10-21T19:34:55.287Z,56.06
2018-10-21T19:37:22.528Z,56.27
2018-10-21T19:39:49.858Z,55.55
2018-10-21T19:42:17.149Z,56.46
2018-10-21T19:44:44.472Z,56.12
2018-10-21T19:47:11.786Z,56.64
2018-10-21T19:49:39.296Z,56.51
2018-10-21T19:52:06.603Z,57.03
2018-10-21T19:54:33.813Z,57.08
2018-10-21T19:57:01.094Z,57.35
2018-10-21T19:59:28.378Z,57.71
2018-10-21T20:01:55.665Z,57.58
2018-10-21T20:04:22.919Z,58.72
2018-10-21T20:06:50.193Z,58.13
2018-10-21T20:09:17.379Z,58.25
2018-10-21T20:11:44.714Z,58.61
2018-10-21T20:14:12.000Z,58.85
2018-10-21T20:16:39.363Z,58.97
2018-10-21T20:19:07.459Z,59.22
2018-10-21T20:21:34.749Z,59.28
2018-10-21T20:24:02.042Z,58.94
2018-10-21T20:26:29.377Z,59.12
2018-10-21T20:28:56.552Z,59.27
2018-10-21T20:31:23.968Z,59.04
2018-10-21T20:33:51.269Z,59.75
2018-10-21T20:36:18.567Z,59.47
2018-10-21T20:38:45.870Z,59.36
2018-10-21T20:41:13.149Z,60.33
2018-10-21T20:43:40.405Z,60.46
2018-10-21T20:46:07.695Z,60.62
2018-10-21T20:48:34.975Z,60.57
2018-10-21T20:51:02.334Z,59.94
2018-10-21T20:53:29.653Z,60.53
2018-10-21T20:55:56.974Z,60.43
2018-10-21T20:58:24.333Z,60.39
2018-10-21T21:00:51.594Z,60.72
2018-10-21T21:03:18.860Z,60.65
2018-10-21T21:05:46.163Z,60.98
2018-10-21T21:08:13.457Z,60.92
2018-10-21T21:10:40.727Z,60.70
2018-10-21T21:13:08.118Z,60.77
2018-10-21T21:15:35.416Z,61.22
2018-10-21T21:18:02.663Z,61.52
2018-10-21T21:20:29.954Z,60.99
2018-10-21T21:22:57.302Z,61.15
2018-10-21T21:25:24.597Z,61.65
2018-10-21T21:27:51.865Z,61.05
2018-10-21T21:30:19.129Z,61.35
2018-10-21T21:32:46.348Z,61.17
2018-10-21T21:35:13.640Z,61.54
2018-10-21T21:37:40.911Z,61.92
2018-10-21T21:40:09.167Z,62.27
2018-10-21T21:42:36.335Z,63.35
2018-10-21T21:45:03.867Z,63.27
2018-10-21T21:47:31.101Z,63.24
2018-10-21T21:49:58.334Z,63.55
2018-10-21T21:52:25.599Z,63.20
2018-10-21T21:54:52.839Z,63.28
2018-10-21T21:57:20.072Z,62.86
2018-10-21T21:59:47.318Z,63.54
2018-10-21T22:02:14.539Z,63.93
2018-10-21T22:04:41.806Z,63.44
2018-10-21T22:07:10.031Z,63.69
2018-10-21T22:09:37.376Z,63.74
2018-10-21T22:12:04.776Z,64.08
2018-10-21T22:14:31.992Z,63.16
2018-10-21T22:16:59.302Z,63.46
2018-10-21T22:19:26.979Z,63.27
2018-10-21T22:21:54.281Z,63.47
2018-10-21T22:24:21.485Z,63.51
2018-10-21T22:26:48.807Z,62.85
2018-10-21T22:29:16.067Z,63.03
2018-10-21T22:31:43.377Z,62.90
2018-10-21T22:34:10.688Z,63.23
2018-10-21T22:36:37.909Z,62.99
2018-10-21T22:39:05.926Z,63.37
2018-10-21T22:41:33.194Z,63.30
2018-10-21T22:44:00.447Z,63.32
2018-10-21T22:47:52.220Z,64.10
2018-10-21T22:50:19.525Z,64.01
2018-10-21T22:52:46.834Z,64.79
2018-10-21T22:55:14.124Z,64.68
2018-10-21T22:57:41.412Z,65.23
2018-10-21T23:00:09.270Z,64.40
2018-10-21T23:02:36.554Z,65.53
2018-10-21T23:05:05.155Z,65.28
2018-10-21T23:07:32.493Z,66.14
2018-10-21T23:09:59.859Z,66.42
2018-10-21T23:12:27.049Z,65.93
2018-10-21T23:14:54.303Z,66.59
2018-10-21T23:17:21.587Z,66.87
2018-10-21T23:19:49.771Z,66.62
2018-10-21T23:22:17.310Z,66.47
2018-10-21T23:24:44.551Z,66.80
2018-10-21T23:27:12.477Z,67.04
2018-10-21T23:29:40.328Z,66.09
2018-10-21T23:32:07.630Z,66.13
2018-10-21T23:34:34.909Z,66.21
2018-10-21T23:37:02.153Z,66.91
2018-10-21T23:39:29.632Z,67.59
2018-10-21T23:41:57.500Z,67.84
2018-10-21T23:44:24.743Z,67.77
2018-10-21T23:46:52.012Z,67.77
2018-10-21T23:49:19.316Z,67.22
2018-10-21T23:51:46.917Z,67.73
2018-10-21T23:54:14.285Z,67.26
2018-10-21T23:56:41.492Z,68.08
2018-10-21T23:59:09.846Z,67.77
